Harrisburg International Airport

Airport
ICAO code: 
KMDT
Summary
ICAO Region: 
NAM
Territory: 
Location: 
Harrisburg, Pennsylvania,
Coordinates: 
Aerial View: 
40° 11' 51.131" N, 76° 45' 49.343" W
Airport BS: 
Bird Strike
Airport WX: 
Cumulonimbus
Metar
Observation
KMDT 020856Z 00000KT 5SM BR BKN048 BKN160 05/03 A2988 RMK AO2 SLP120 60003 T00500033 58019
Station
Harrisburg, Harrisburg International Airport
Date/Time
2021-12-02 08:56:00
Wind direction
Wind speed
00 kts
Lowest cloud amount
broken clouds
Temperature
5°C
Dew point
3.3°C
Humidity
88%
Weather condition
mist

Description

Harrisburg International Airport is a public use airport located 15 km southeast of Harrisburg, a city in in Lower Swatara Township, Pennsylvania.

Climatology

In the transition zone between humid “subtropical” climate (Köppen climate classification Cfa) and humid continental (Köppen climate classification Dfa) - characterized by hot, humid summers and cool winters. Significant amounts of precipitation occur in all seasons in most areas. Winter rainfall (and sometimes snowfall) is associated with large storms that the westerlies steer from west to east. Most summer rainfall occurs during thunderstorms.

Runways

Designator Length Width Surface Rops
13/31 3048 61 ASP Yes/Yes
Airport map: 
Aerial View: 

SKYbrary Partners:

Safety knowledge contributed by: